Captain Jimmy T Moran — WDE6653 — position and weather

sailwx.info

Track history (hours):
 
Tides and Currents Weather Stations Pressure Air Temp Water Temp Dewpoint Dewpoint Depression Visibility Wind Speed Wind Dir Waves Ship Positions

Captain Jimmy T Moran

Owner: Moran Towing Corp, New Cannan, CT. More information available from US FCC via Universal Licensing System and Coast Guard Vessel Documentation Center.

Last reported at 2015-May-30 01:30 UTC. Time now 2015-May-30 02:27 UTC.
Position N 29°55' W 090°06'.

Length 26 m; draft 4.9 m.

Type: Tug. MMSI: 367382920.

Date/timePositionNaut miles runAvg speedWind from/ knotsBaromVisibWave heightAir tempDewpointWater temp
2015-May-30 01:30N 29°55' W 090°06'1 1.6
2015-May-30 00:33N 29°55' W 090°04'5 4.7
2015-May-29 23:33N 29°56' W 089°59'4 0.8
2015-May-29 19:08N 29°58' W 090°03'4 1.5
2015-May-29 16:26N 29°55' W 090°06'0 0.0
2015-May-29 15:06N 29°55' W 090°06'0 0.0
2015-May-29 14:31N 29°55' W 090°06'0 0.0
2015-May-29 13:07N 29°55' W 090°06'0 0.0
2015-May-29 12:26N 29°55' W 090°06'0 0.0
2015-May-29 11:31N 29°55' W 090°06'0 0.0
2015-May-29 10:29N 29°55' W 090°06'0 0.0
2015-May-29 09:30N 29°55' W 090°06'0 0.0
2015-May-29 08:32N 29°55' W 090°06'0 0.0
2015-May-29 07:33N 29°55' W 090°06'0 0.0
2015-May-29 06:31N 29°55' W 090°06'0 0.0
2015-May-29 05:33N 29°55' W 090°06'0 0.0
2015-May-29 04:30N 29°55' W 090°06'0 0.0
2015-May-29 03:26N 29°55' W 090°06'0 0.0
2015-May-29 02:33N 29°55' W 090°06'0 0.0
2015-May-29 01:20N 29°55' W 090°06'1 0.2
2015-May-28 22:31N 29°55' W 090°05'1 0.0
2015-May-28 05:07N 29°55' W 090°06'2 1.8
2015-May-28 04:15N 29°55' W 090°04'5 5.5
2015-May-28 03:26N 29°56' W 089°59'5 1.2
2015-May-27 23:26N 29°55' W 090°05'1 1.2
2015-May-27 22:28N 29°55' W 090°06'0 0.0
2015-May-27 21:32N 29°55' W 090°06'0 0.0
2015-May-27 20:10N 29°55' W 090°06'0 0.0
2015-May-27 19:28N 29°55' W 090°06'0 0.3
2015-May-27 18:25N 29°55' W 090°06'0 0.5
2015-May-27 17:30N 29°55' W 090°07'2 2.2
2015-May-27 16:31N 29°55' W 090°04'3 3.4
2015-May-27 15:31N 29°57' W 090°01'0 0.0
2015-May-27 14:30N 29°57' W 090°01'0 0.0
2015-May-27 13:29N 29°57' W 090°01'0 0.3
2015-May-27 12:33N 29°57' W 090°01'2 2.0
2015-May-27 11:28N 29°56' W 089°59'0 0.0
2015-May-27 10:32N 29°56' W 089°59'4 4.2
2015-May-27 09:33N 29°56' W 090°04'2 2.2
2015-May-27 08:30N 29°55' W 090°06'0 0.0
2015-May-27 07:27N 29°55' W 090°06'0 0.0
2015-May-27 06:28N 29°55' W 090°06'0 0.0
2015-May-27 05:20N 29°55' W 090°06'0 0.0
2015-May-27 04:31N 29°55' W 090°06'0 0.0
2015-May-27 03:31N 29°55' W 090°06'0 0.0
2015-May-26 19:13N 29°55' W 090°06'1 1.1
2015-May-26 18:27N 29°55' W 090°07'1 0.2
2015-May-26 13:16N 29°55' W 090°06'1 0.6
2015-May-26 12:18N 29°55' W 090°07'3 1.9
2015-May-26 10:29N 29°57' W 090°04'4 4.7
2015-May-26 09:33N 29°56' W 089°59'0 0.0
2015-May-26 08:25N 29°56' W 089°59'0 0.1
2015-May-26 07:21N 29°56' W 089°59'4 5.2
2015-May-26 06:30N 29°56' W 090°04'3 1.3
2015-May-26 04:31N 29°55' W 090°06'0 0.0
2015-May-26 03:28N 29°55' W 090°06'1 0.6
2015-May-26 01:10N 29°55' W 090°04'0 0.5
2015-May-26 00:32N 29°55' W 090°05'1 0.4
2015-May-25 22:11N 29°55' W 090°06'0 0.0
2015-May-25 21:27N 29°55' W 090°06'0 0.0
2015-May-25 19:12N 29°55' W 090°06'0 0.0
2015-May-25 17:24N 29°55' W 090°06'0 0.0
2015-May-25 16:27N 29°55' W 090°06'0 0.0
2015-May-25 14:32N 29°55' W 090°06'0 0.0
2015-May-25 05:20N 29°55' W 090°06'0 0.0
2015-May-25 04:18N 29°55' W 090°06'0 0.0
2015-May-24 22:30N 29°55' W 090°06'0 0.0
2015-May-24 21:32N 29°55' W 090°06'0 0.0
2015-May-24 20:23N 29°55' W 090°06'0 0.0
2015-May-24 19:22N 29°55' W 090°06'0 0.0
2015-May-24 18:26N 29°55' W 090°06'0 0.0
2015-May-24 17:09N 29°55' W 090°06'0 0.0
2015-May-24 16:18N 29°55' W 090°06'0 0.0
2015-May-24 15:33N 29°55' W 090°06'0 0.0
2015-May-24 14:30N 29°55' W 090°06'0 0.0
2015-May-24 13:21N 29°55' W 090°06'0 0.0
2015-May-24 12:24N 29°55' W 090°06'0 0.0
2015-May-24 11:14N 29°55' W 090°06'0 0.0
2015-May-24 10:33N 29°55' W 090°06'0 0.0
2015-May-24 09:22N 29°55' W 090°06'0 0.0
2015-May-24 08:16N 29°55' W 090°06'4 0.6
2015-May-24 01:34N 29°57' W 090°02'3 0.6
2015-May-23 19:28N 29°56' W 089°59'6 6.4
2015-May-23 18:29N 29°55' W 090°06'0 0.0
2015-May-23 17:19N 29°55' W 090°06'0 0.0
2015-May-23 16:28N 29°55' W 090°06'0 0.0
2015-May-23 15:30N 29°55' W 090°06'0 0.1
2015-May-23 14:32N 29°55' W 090°06'0 0.4
2015-May-23 13:33N 29°55' W 090°05'1 1.1
2015-May-23 12:34N 29°55' W 090°04'3 3.3
2015-May-23 11:32N 29°57' W 090°01'2 0.2
2015-May-23 00:16N 29°58' W 090°03'4 4.9
2015-May-22 23:23N 29°55' W 090°07'6 6.0
2015-May-22 22:19N 29°56' W 089°59'5 0.4
2015-May-22 07:23N 29°55' W 090°05'4 4.4
2015-May-22 06:23N 29°57' W 090°01'3 0.1
2015-May-21 05:30N 29°55' W 090°04'3 0.4
2015-May-20 22:08N 29°57' W 090°01'4 0.5
2015-May-20 14:32N 29°55' W 090°05'1 1.0
2015-May-20 13:20N 29°55' W 090°06'1 0.1
2015-May-20 08:11N 29°55' W 090°07'1 0.4
2015-May-20 06:28N 29°55' W 090°06'  
Track history (hours):
 
Tides and Currents Weather Stations Pressure Air Temp Water Temp Dewpoint Dewpoint Depression Visibility Wind Speed Wind Dir Waves Ship Positions

Captain Jimmy T Moran

Owner: Moran Towing Corp, New Cannan, CT. More information available from US FCC via Universal Licensing System and Coast Guard Vessel Documentation Center.

Last reported at 2015-May-30 01:30 UTC. Time now 2015-May-30 02:27 UTC.
Position N 29°55' W 090°06'.

Length 26 m; draft 4.9 m.

Type: Tug. MMSI: 367382920.

Date/timePositionNaut miles runAvg speedWind from/ knotsBaromVisibWave heightAir tempDewpointWater temp
2015-May-30 01:30N 29°55' W 090°06'1 1.6
2015-May-30 00:33N 29°55' W 090°04'5 4.7
2015-May-29 23:33N 29°56' W 089°59'4 0.8
2015-May-29 19:08N 29°58' W 090°03'4 1.5
2015-May-29 16:26N 29°55' W 090°06'0 0.0
2015-May-29 15:06N 29°55' W 090°06'0 0.0
2015-May-29 14:31N 29°55' W 090°06'0 0.0
2015-May-29 13:07N 29°55' W 090°06'0 0.0
2015-May-29 12:26N 29°55' W 090°06'0 0.0
2015-May-29 11:31N 29°55' W 090°06'0 0.0
2015-May-29 10:29N 29°55' W 090°06'0 0.0
2015-May-29 09:30N 29°55' W 090°06'0 0.0
2015-May-29 08:32N 29°55' W 090°06'0 0.0
2015-May-29 07:33N 29°55' W 090°06'0 0.0
2015-May-29 06:31N 29°55' W 090°06'0 0.0
2015-May-29 05:33N 29°55' W 090°06'0 0.0
2015-May-29 04:30N 29°55' W 090°06'0 0.0
2015-May-29 03:26N 29°55' W 090°06'0 0.0
2015-May-29 02:33N 29°55' W 090°06'0 0.0
2015-May-29 01:20N 29°55' W 090°06'1 0.2
2015-May-28 22:31N 29°55' W 090°05'1 0.0
2015-May-28 05:07N 29°55' W 090°06'2 1.8
2015-May-28 04:15N 29°55' W 090°04'5 5.5
2015-May-28 03:26N 29°56' W 089°59'5 1.2
2015-May-27 23:26N 29°55' W 090°05'1 1.2
2015-May-27 22:28N 29°55' W 090°06'0 0.0
2015-May-27 21:32N 29°55' W 090°06'0 0.0
2015-May-27 20:10N 29°55' W 090°06'0 0.0
2015-May-27 19:28N 29°55' W 090°06'0 0.3
2015-May-27 18:25N 29°55' W 090°06'0 0.5
2015-May-27 17:30N 29°55' W 090°07'2 2.2
2015-May-27 16:31N 29°55' W 090°04'3 3.4
2015-May-27 15:31N 29°57' W 090°01'0 0.0
2015-May-27 14:30N 29°57' W 090°01'0 0.0
2015-May-27 13:29N 29°57' W 090°01'0 0.3
2015-May-27 12:33N 29°57' W 090°01'2 2.0
2015-May-27 11:28N 29°56' W 089°59'0 0.0
2015-May-27 10:32N 29°56' W 089°59'4 4.2
2015-May-27 09:33N 29°56' W 090°04'2 2.2
2015-May-27 08:30N 29°55' W 090°06'0 0.0
2015-May-27 07:27N 29°55' W 090°06'0 0.0
2015-May-27 06:28N 29°55' W 090°06'0 0.0
2015-May-27 05:20N 29°55' W 090°06'0 0.0
2015-May-27 04:31N 29°55' W 090°06'0 0.0
2015-May-27 03:31N 29°55' W 090°06'0 0.0
2015-May-26 19:13N 29°55' W 090°06'1 1.1
2015-May-26 18:27N 29°55' W 090°07'1 0.2
2015-May-26 13:16N 29°55' W 090°06'1 0.6
2015-May-26 12:18N 29°55' W 090°07'3 1.9
2015-May-26 10:29N 29°57' W 090°04'4 4.7
2015-May-26 09:33N 29°56' W 089°59'0 0.0
2015-May-26 08:25N 29°56' W 089°59'0 0.1
2015-May-26 07:21N 29°56' W 089°59'4 5.2
2015-May-26 06:30N 29°56' W 090°04'3 1.3
2015-May-26 04:31N 29°55' W 090°06'0 0.0
2015-May-26 03:28N 29°55' W 090°06'1 0.6
2015-May-26 01:10N 29°55' W 090°04'0 0.5
2015-May-26 00:32N 29°55' W 090°05'1 0.4
2015-May-25 22:11N 29°55' W 090°06'0 0.0
2015-May-25 21:27N 29°55' W 090°06'0 0.0
2015-May-25 19:12N 29°55' W 090°06'0 0.0
2015-May-25 17:24N 29°55' W 090°06'0 0.0
2015-May-25 16:27N 29°55' W 090°06'0 0.0
2015-May-25 14:32N 29°55' W 090°06'0 0.0
2015-May-25 05:20N 29°55' W 090°06'0 0.0
2015-May-25 04:18N 29°55' W 090°06'0 0.0
2015-May-24 22:30N 29°55' W 090°06'0 0.0
2015-May-24 21:32N 29°55' W 090°06'0 0.0
2015-May-24 20:23N 29°55' W 090°06'0 0.0
2015-May-24 19:22N 29°55' W 090°06'0 0.0
2015-May-24 18:26N 29°55' W 090°06'0 0.0
2015-May-24 17:09N 29°55' W 090°06'0 0.0
2015-May-24 16:18N 29°55' W 090°06'0 0.0
2015-May-24 15:33N 29°55' W 090°06'0 0.0
2015-May-24 14:30N 29°55' W 090°06'0 0.0
2015-May-24 13:21N 29°55' W 090°06'0 0.0
2015-May-24 12:24N 29°55' W 090°06'0 0.0
2015-May-24 11:14N 29°55' W 090°06'0 0.0
2015-May-24 10:33N 29°55' W 090°06'0 0.0
2015-May-24 09:22N 29°55' W 090°06'0 0.0
2015-May-24 08:16N 29°55' W 090°06'4 0.6
2015-May-24 01:34N 29°57' W 090°02'3 0.6
2015-May-23 19:28N 29°56' W 089°59'6 6.4
2015-May-23 18:29N 29°55' W 090°06'0 0.0
2015-May-23 17:19N 29°55' W 090°06'0 0.0
2015-May-23 16:28N 29°55' W 090°06'0 0.0
2015-May-23 15:30N 29°55' W 090°06'0 0.1
2015-May-23 14:32N 29°55' W 090°06'0 0.4
2015-May-23 13:33N 29°55' W 090°05'1 1.1
2015-May-23 12:34N 29°55' W 090°04'3 3.3
2015-May-23 11:32N 29°57' W 090°01'2 0.2
2015-May-23 00:16N 29°58' W 090°03'4 4.9
2015-May-22 23:23N 29°55' W 090°07'6 6.0
2015-May-22 22:19N 29°56' W 089°59'5 0.4
2015-May-22 07:23N 29°55' W 090°05'4 4.4
2015-May-22 06:23N 29°57' W 090°01'3 0.1
2015-May-21 05:30N 29°55' W 090°04'3 0.4
2015-May-20 22:08N 29°57' W 090°01'4 0.5
2015-May-20 14:32N 29°55' W 090°05'1 1.0
2015-May-20 13:20N 29°55' W 090°06'1 0.1
2015-May-20 08:11N 29°55' W 090°07'1 0.4
2015-May-20 06:28N 29°55' W 090°06'  

Dump ship's entire track history